sensor_id;sensor_type;location;lat;lon;timestamp;pressure;altitude;pressure_sealevel;temperature;humidity
27712;BME280;2377;51.734;8.950;2022-08-04T00:01:44;97822.00;;;22.86;64.86
27712;BME280;2377;51.734;8.950;2022-08-04T00:04:25;97816.13;;;22.80;64.81
27712;BME280;2377;51.734;8.950;2022-08-04T00:07:07;97821.94;;;22.77;64.93
27712;BME280;2377;51.734;8.950;2022-08-04T00:09:43;97811.03;;;22.75;64.97
27712;BME280;2377;51.734;8.950;2022-08-04T00:12:11;97813.94;;;22.73;64.77
27712;BME280;2377;51.734;8.950;2022-08-04T00:14:48;97815.75;;;22.73;65.20
27712;BME280;2377;51.734;8.950;2022-08-04T00:17:21;97807.47;;;22.71;64.96
27712;BME280;2377;51.734;8.950;2022-08-04T00:19:54;97809.59;;;22.69;64.84
27712;BME280;2377;51.734;8.950;2022-08-04T00:22:28;97813.25;;;22.68;64.96
27712;BME280;2377;51.734;8.950;2022-08-04T00:24:59;97810.75;;;22.63;65.09
27712;BME280;2377;51.734;8.950;2022-08-04T00:27:28;97806.13;;;22.59;65.13
27712;BME280;2377;51.734;8.950;2022-08-04T00:29:56;97808.22;;;22.57;64.96
27712;BME280;2377;51.734;8.950;2022-08-04T00:32:26;97800.53;;;22.52;65.03
27712;BME280;2377;51.734;8.950;2022-08-04T00:34:54;97804.97;;;22.52;65.25
27712;BME280;2377;51.734;8.950;2022-08-04T00:37:23;97797.44;;;22.50;65.63
27712;BME280;2377;51.734;8.950;2022-08-04T00:39:52;97800.63;;;22.47;65.61
27712;BME280;2377;51.734;8.950;2022-08-04T00:42:33;97797.84;;;22.44;66.04
27712;BME280;2377;51.734;8.950;2022-08-04T00:45:43;97804.78;;;22.34;66.79
27712;BME280;2377;51.734;8.950;2022-08-04T00:48:36;97795.34;;;22.25;67.28
27712;BME280;2377;51.734;8.950;2022-08-04T00:51:22;97796.44;;;22.19;67.91
27712;BME280;2377;51.734;8.950;2022-08-04T00:54:05;97803.75;;;22.16;67.84
27712;BME280;2377;51.734;8.950;2022-08-04T00:57:01;97798.84;;;22.15;67.61
27712;BME280;2377;51.734;8.950;2022-08-04T00:59:53;97788.72;;;22.13;67.87
27712;BME280;2377;51.734;8.950;2022-08-04T01:02:38;97797.41;;;22.09;67.56
27712;BME280;2377;51.734;8.950;2022-08-04T01:05:20;97789.88;;;22.07;67.78
27712;BME280;2377;51.734;8.950;2022-08-04T01:08:14;97792.75;;;22.06;67.66
27712;BME280;2377;51.734;8.950;2022-08-04T01:11:03;97780.59;;;22.01;67.65
27712;BME280;2377;51.734;8.950;2022-08-04T01:14:13;97787.44;;;21.97;68.25
27712;BME280;2377;51.734;8.950;2022-08-04T01:16:50;97785.41;;;21.94;68.14
27712;BME280;2377;51.734;8.950;2022-08-04T01:20:00;97783.97;;;21.88;68.39
27712;BME280;2377;51.734;8.950;2022-08-04T01:26:56;97786.16;;;21.81;68.57
27712;BME280;2377;51.734;8.950;2022-08-04T01:29:34;97776.53;;;21.81;69.10
27712;BME280;2377;51.734;8.950;2022-08-04T01:32:06;97780.97;;;21.81;69.18
27712;BME280;2377;51.734;8.950;2022-08-04T01:34:47;97782.78;;;21.80;68.76
27712;BME280;2377;51.734;8.950;2022-08-04T01:37:36;97783.06;;;21.79;68.68
27712;BME280;2377;51.734;8.950;2022-08-04T01:40:08;97772.66;;;21.79;68.55
27712;BME280;2377;51.734;8.950;2022-08-04T01:42:42;97776.53;;;21.81;68.58
27712;BME280;2377;51.734;8.950;2022-08-04T01:45:13;97773.63;;;21.83;68.82
27712;BME280;2377;51.734;8.950;2022-08-04T01:47:48;97777.00;;;21.83;68.95
27712;BME280;2377;51.734;8.950;2022-08-04T01:50:16;97771.81;;;21.83;68.77
27712;BME280;2377;51.734;8.950;2022-08-04T01:52:44;97773.81;;;21.86;68.80
27712;BME280;2377;51.734;8.950;2022-08-04T01:55:14;97772.00;;;21.87;68.60
27712;BME280;2377;51.734;8.950;2022-08-04T01:57:45;97767.28;;;21.89;68.36
27712;BME280;2377;51.734;8.950;2022-08-04T02:00:17;97765.44;;;21.89;68.56
27712;BME280;2377;51.734;8.950;2022-08-04T02:02:45;97767.28;;;21.89;68.66
27712;BME280;2377;51.734;8.950;2022-08-04T02:05:16;97755.59;;;21.86;68.73
27712;BME280;2377;51.734;8.950;2022-08-04T02:08:01;97756.19;;;21.83;69.10
27712;BME280;2377;51.734;8.950;2022-08-04T02:10:46;97754.94;;;21.81;69.14
27712;BME280;2377;51.734;8.950;2022-08-04T02:13:23;97757.53;;;21.81;68.76
27712;BME280;2377;51.734;8.950;2022-08-04T02:16:01;97752.03;;;21.82;69.51
27712;BME280;2377;51.734;8.950;2022-08-04T02:18:33;97747.63;;;21.83;68.61
27712;BME280;2377;51.734;8.950;2022-08-04T02:21:09;97754.34;;;21.84;68.40
27712;BME280;2377;51.734;8.950;2022-08-04T02:23:40;97754.84;;;21.86;67.87
27712;BME280;2377;51.734;8.950;2022-08-04T02:26:15;97744.16;;;21.87;67.82
27712;BME280;2377;51.734;8.950;2022-08-04T02:28:54;97746.44;;;21.89;67.67
27712;BME280;2377;51.734;8.950;2022-08-04T02:31:31;97746.44;;;21.89;67.56
27712;BME280;2377;51.734;8.950;2022-08-04T02:34:07;97751.66;;;21.89;67.90
27712;BME280;2377;51.734;8.950;2022-08-04T02:36:37;97751.66;;;21.89;67.60
27712;BME280;2377;51.734;8.950;2022-08-04T02:39:07;97745.97;;;21.87;67.77
27712;BME280;2377;51.734;8.950;2022-08-04T02:41:37;97737.38;;;21.86;67.49
27712;BME280;2377;51.734;8.950;2022-08-04T02:44:07;97745.50;;;21.85;67.72
27712;BME280;2377;51.734;8.950;2022-08-04T02:46:37;97738.75;;;21.84;67.73
27712;BME280;2377;51.734;8.950;2022-08-04T02:49:08;97732.56;;;21.80;67.72
27712;BME280;2377;51.734;8.950;2022-08-04T02:51:41;97739.88;;;21.78;68.60
27712;BME280;2377;51.734;8.950;2022-08-04T02:54:09;97735.25;;;21.74;68.32
27712;BME280;2377;51.734;8.950;2022-08-04T02:56:38;97727.25;;;21.71;68.65
27712;BME280;2377;51.734;8.950;2022-08-04T02:59:08;97726.78;;;21.69;69.00
27712;BME280;2377;51.734;8.950;2022-08-04T03:01:37;97726.56;;;21.65;69.04
27712;BME280;2377;51.734;8.950;2022-08-04T03:04:26;97722.69;;;21.63;69.05
27712;BME280;2377;51.734;8.950;2022-08-04T03:07:33;97714.22;;;21.57;69.42
27712;BME280;2377;51.734;8.950;2022-08-04T03:10:46;97709.88;;;21.52;69.34
27712;BME280;2377;51.734;8.950;2022-08-04T03:13:59;97707.28;;;21.52;69.05
27712;BME280;2377;51.734;8.950;2022-08-04T03:17:06;97714.00;;;21.53;68.94
27712;BME280;2377;51.734;8.950;2022-08-04T03:27:09;97715.72;;;21.44;69.13
27712;BME280;2377;51.734;8.950;2022-08-04T03:30:12;97716.03;;;21.43;69.38
27712;BME280;2377;51.734;8.950;2022-08-04T03:33:27;97711.38;;;21.40;69.65
27712;BME280;2377;51.734;8.950;2022-08-04T03:50:10;97698.03;;;21.27;69.77
27712;BME280;2377;51.734;8.950;2022-08-04T03:53:22;97703.22;;;21.27;69.76
27712;BME280;2377;51.734;8.950;2022-08-04T03:56:29;97696.19;;;21.28;69.76
27712;BME280;2377;51.734;8.950;2022-08-04T03:59:39;97705.25;;;21.30;69.26
27712;BME280;2377;51.734;8.950;2022-08-04T04:02:54;97698.25;;;21.31;69.90
27712;BME280;2377;51.734;8.950;2022-08-04T04:15:52;97698.84;;;21.42;69.66
27712;BME280;2377;51.734;8.950;2022-08-04T04:18:55;97694.16;;;21.44;69.72
27712;BME280;2377;51.734;8.950;2022-08-04T04:21:50;97700.91;;;21.45;69.70
27712;BME280;2377;51.734;8.950;2022-08-04T04:25:10;97699.34;;;21.44;69.46
27712;BME280;2377;51.734;8.950;2022-08-04T04:28:00;97690.50;;;21.45;69.91
27712;BME280;2377;51.734;8.950;2022-08-04T04:30:46;97698.78;;;21.47;69.79
27712;BME280;2377;51.734;8.950;2022-08-04T04:33:36;97699.25;;;21.49;69.80
27712;BME280;2377;51.734;8.950;2022-08-04T04:36:15;97693.97;;;21.54;69.86
27712;BME280;2377;51.734;8.950;2022-08-04T04:39:02;97705.94;;;21.55;69.48
27712;BME280;2377;51.734;8.950;2022-08-04T04:41:57;97703.06;;;21.57;69.53
27712;BME280;2377;51.734;8.950;2022-08-04T04:45:02;97707.69;;;21.60;69.47
27712;BME280;2377;51.734;8.950;2022-08-04T04:47:45;97710.94;;;21.65;69.63
27712;BME280;2377;51.734;8.950;2022-08-04T04:50:33;97709.81;;;21.71;68.80
27712;BME280;2377;51.734;8.950;2022-08-04T04:53:15;97707.59;;;21.79;68.51
27712;BME280;2377;51.734;8.950;2022-08-04T04:55:50;97706.16;;;21.86;68.21
27712;BME280;2377;51.734;8.950;2022-08-04T04:58:22;97708.66;;;21.91;68.34
27712;BME280;2377;51.734;8.950;2022-08-04T05:01:27;97705.19;;;21.96;67.92
27712;BME280;2377;51.734;8.950;2022-08-04T05:04:22;97714.47;;;22.02;68.06
27712;BME280;2377;51.734;8.950;2022-08-04T05:07:26;97711.75;;;22.07;68.01
27712;BME280;2377;51.734;8.950;2022-08-04T05:10:11;97709.81;;;22.13;67.67
27712;BME280;2377;51.734;8.950;2022-08-04T05:13:12;97704.22;;;22.20;66.98
27712;BME280;2377;51.734;8.950;2022-08-04T05:15:45;97711.09;;;22.29;66.86
27712;BME280;2377;51.734;8.950;2022-08-04T05:18:23;97704.44;;;22.37;66.67
27712;BME280;2377;51.734;8.950;2022-08-04T05:20:56;97709.56;;;22.42;66.69
27712;BME280;2377;51.734;8.950;2022-08-04T05:23:26;97705.19;;;22.51;66.76
27712;BME280;2377;51.734;8.950;2022-08-04T05:26:00;97711.25;;;22.61;66.44
27712;BME280;2377;51.734;8.950;2022-08-04T05:28:37;97707.94;;;22.69;66.49
27712;BME280;2377;51.734;8.950;2022-08-04T05:31:11;97708.50;;;22.79;65.69
27712;BME280;2377;51.734;8.950;2022-08-04T05:33:46;97714.56;;;22.89;65.86
27712;BME280;2377;51.734;8.950;2022-08-04T05:36:17;97704.97;;;22.98;65.11
27712;BME280;2377;51.734;8.950;2022-08-04T05:38:52;97711.63;;;23.04;65.45
27712;BME280;2377;51.734;8.950;2022-08-04T05:41:21;97714.91;;;23.10;65.56
27712;BME280;2377;51.734;8.950;2022-08-04T05:43:50;97711.41;;;23.14;65.39
27712;BME280;2377;51.734;8.950;2022-08-04T05:46:18;97699.00;;;23.20;65.01
27712;BME280;2377;51.734;8.950;2022-08-04T05:48:46;97696.28;;;23.25;65.91
27712;BME280;2377;51.734;8.950;2022-08-04T05:51:15;97700.00;;;23.33;65.23
27712;BME280;2377;51.734;8.950;2022-08-04T05:53:43;97702.78;;;23.36;66.09
27712;BME280;2377;51.734;8.950;2022-08-04T05:56:14;97703.91;;;23.44;66.37
27712;BME280;2377;51.734;8.950;2022-08-04T05:58:44;97707.16;;;23.50;66.00
27712;BME280;2377;51.734;8.950;2022-08-04T06:01:15;97706.28;;;23.54;64.83
27712;BME280;2377;51.734;8.950;2022-08-04T06:03:44;97705.81;;;23.61;64.10
27712;BME280;2377;51.734;8.950;2022-08-04T06:06:14;97698.34;;;23.68;64.32
27712;BME280;2377;51.734;8.950;2022-08-04T06:08:43;97702.88;;;23.76;63.40
27712;BME280;2377;51.734;8.950;2022-08-04T06:11:12;97700.88;;;23.82;63.02
27712;BME280;2377;51.734;8.950;2022-08-04T06:13:43;97698.94;;;23.88;62.86
27712;BME280;2377;51.734;8.950;2022-08-04T06:16:15;97700.31;;;23.94;62.21
27712;BME280;2377;51.734;8.950;2022-08-04T06:18:47;97702.81;;;23.99;61.68
27712;BME280;2377;51.734;8.950;2022-08-04T06:21:19;97699.28;;;24.03;60.94
27712;BME280;2377;51.734;8.950;2022-08-04T06:23:49;97696.81;;;24.07;61.48
27712;BME280;2377;51.734;8.950;2022-08-04T06:26:18;97700.06;;;24.13;60.95
27712;BME280;2377;51.734;8.950;2022-08-04T06:28:49;97700.38;;;24.20;59.88
27712;BME280;2377;51.734;8.950;2022-08-04T06:31:20;97687.66;;;24.27;59.81
27712;BME280;2377;51.734;8.950;2022-08-04T06:34:10;97698.13;;;24.36;59.78
27712;BME280;2377;51.734;8.950;2022-08-04T06:36:40;97691.97;;;24.40;59.46
27712;BME280;2377;51.734;8.950;2022-08-04T06:39:10;97693.88;;;24.49;59.15
27712;BME280;2377;51.734;8.950;2022-08-04T06:41:39;97694.50;;;24.54;59.15
27712;BME280;2377;51.734;8.950;2022-08-04T06:44:09;97703.88;;;24.64;58.05
27712;BME280;2377;51.734;8.950;2022-08-04T06:46:40;97701.25;;;24.73;58.30
27712;BME280;2377;51.734;8.950;2022-08-04T06:49:10;97698.19;;;24.79;58.63
27712;BME280;2377;51.734;8.950;2022-08-04T06:51:39;97696.66;;;24.87;58.80
27712;BME280;2377;51.734;8.950;2022-08-04T06:54:07;97698.03;;;24.93;57.63
27712;BME280;2377;51.734;8.950;2022-08-04T06:56:38;97694.81;;;25.05;57.46
27712;BME280;2377;51.734;8.950;2022-08-04T06:59:07;97696.00;;;25.16;57.59
27712;BME280;2377;51.734;8.950;2022-08-04T07:01:39;97694.16;;;25.25;58.09
27712;BME280;2377;51.734;8.950;2022-08-04T07:04:07;97690.59;;;25.39;57.17
27712;BME280;2377;51.734;8.950;2022-08-04T07:06:35;97694.56;;;25.53;56.95
27712;BME280;2377;51.734;8.950;2022-08-04T07:09:04;97694.50;;;25.71;56.79
27712;BME280;2377;51.734;8.950;2022-08-04T07:11:33;97694.00;;;25.86;56.19
27712;BME280;2377;51.734;8.950;2022-08-04T07:14:02;97701.34;;;26.02;56.33
27712;BME280;2377;51.734;8.950;2022-08-04T07:16:32;97699.69;;;26.18;55.46
27712;BME280;2377;51.734;8.950;2022-08-04T07:19:01;97699.59;;;26.35;55.22
27712;BME280;2377;51.734;8.950;2022-08-04T07:21:29;97708.13;;;26.53;54.76
27712;BME280;2377;51.734;8.950;2022-08-04T07:23:56;97707.03;;;26.75;54.54
27712;BME280;2377;51.734;8.950;2022-08-04T07:26:27;97707.34;;;26.95;53.65
27712;BME280;2377;51.734;8.950;2022-08-04T07:28:54;97708.41;;;27.15;54.04
27712;BME280;2377;51.734;8.950;2022-08-04T07:31:25;97700.94;;;27.38;54.01
27712;BME280;2377;51.734;8.950;2022-08-04T07:33:54;97703.06;;;27.57;53.88
27712;BME280;2377;51.734;8.950;2022-08-04T07:36:23;97696.16;;;27.77;52.17
27712;BME280;2377;51.734;8.950;2022-08-04T07:38:50;97702.78;;;27.95;51.87
27712;BME280;2377;51.734;8.950;2022-08-04T07:41:21;97697.72;;;28.15;51.50
27712;BME280;2377;51.734;8.950;2022-08-04T07:43:49;97702.75;;;28.32;50.85
27712;BME280;2377;51.734;8.950;2022-08-04T07:46:17;97692.84;;;28.54;50.27
27712;BME280;2377;51.734;8.950;2022-08-04T07:48:44;97706.84;;;28.70;49.33
27712;BME280;2377;51.734;8.950;2022-08-04T07:51:12;97697.22;;;28.90;48.46
27712;BME280;2377;51.734;8.950;2022-08-04T07:53:42;97693.75;;;29.02;47.30
27712;BME280;2377;51.734;8.950;2022-08-04T07:56:10;97699.19;;;29.21;48.39
27712;BME280;2377;51.734;8.950;2022-08-04T07:58:39;97688.75;;;29.41;46.97
27712;BME280;2377;51.734;8.950;2022-08-04T08:01:08;97694.09;;;29.60;47.43
27712;BME280;2377;51.734;8.950;2022-08-04T08:03:36;97697.94;;;29.79;46.96
27712;BME280;2377;51.734;8.950;2022-08-04T08:06:05;97696.81;;;29.96;46.38
27712;BME280;2377;51.734;8.950;2022-08-04T08:08:32;97688.53;;;30.13;45.44
27712;BME280;2377;51.734;8.950;2022-08-04T08:11:04;97686.25;;;30.27;45.21
27712;BME280;2377;51.734;8.950;2022-08-04T08:13:33;97686.88;;;30.40;45.06
27712;BME280;2377;51.734;8.950;2022-08-04T08:16:01;97690.50;;;30.51;44.46
27712;BME280;2377;51.734;8.950;2022-08-04T08:18:29;97694.78;;;30.60;43.75
27712;BME280;2377;51.734;8.950;2022-08-04T08:20:57;97684.53;;;30.74;42.28
27712;BME280;2377;51.734;8.950;2022-08-04T08:23:25;97690.50;;;30.90;44.00
27712;BME280;2377;51.734;8.950;2022-08-04T08:25:53;97686.88;;;30.99;42.92
27712;BME280;2377;51.734;8.950;2022-08-04T08:28:22;97687.47;;;31.11;43.42
27712;BME280;2377;51.734;8.950;2022-08-04T08:30:49;97682.25;;;31.15;41.96
27712;BME280;2377;51.734;8.950;2022-08-04T08:33:18;97686.53;;;31.23;42.05
27712;BME280;2377;51.734;8.950;2022-08-04T08:35:52;97691.47;;;31.25;42.38
27712;BME280;2377;51.734;8.950;2022-08-04T08:38:37;97683.38;;;31.37;42.05
27712;BME280;2377;51.734;8.950;2022-08-04T08:47:46;97686.88;;;31.68;41.70
27712;BME280;2377;51.734;8.950;2022-08-04T08:53:53;97685.59;;;31.81;40.33
27712;BME280;2377;51.734;8.950;2022-08-04T08:56:33;97690.94;;;31.85;40.72
27712;BME280;2377;51.734;8.950;2022-08-04T08:59:51;97687.91;;;31.86;41.09
27712;BME280;2377;51.734;8.950;2022-08-04T09:02:48;97694.09;;;31.94;40.94
27712;BME280;2377;51.734;8.950;2022-08-04T09:05:45;97694.22;;;32.01;40.76
27712;BME280;2377;51.734;8.950;2022-08-04T09:08:40;97701.47;;;32.08;39.82
27712;BME280;2377;51.734;8.950;2022-08-04T09:11:18;97686.09;;;32.17;41.11
27712;BME280;2377;51.734;8.950;2022-08-04T09:13:55;97689.69;;;32.32;40.86
27712;BME280;2377;51.734;8.950;2022-08-04T09:16:34;97700.06;;;32.44;40.49
27712;BME280;2377;51.734;8.950;2022-08-04T09:19:11;97698.00;;;32.60;41.22
27712;BME280;2377;51.734;8.950;2022-08-04T09:21:46;97693.22;;;32.73;39.60
27712;BME280;2377;51.734;8.950;2022-08-04T09:24:24;97696.03;;;32.88;40.00
27712;BME280;2377;51.734;8.950;2022-08-04T09:26:59;97700.69;;;32.98;39.66
27712;BME280;2377;51.734;8.950;2022-08-04T09:29:35;97697.75;;;33.06;39.38
27712;BME280;2377;51.734;8.950;2022-08-04T09:32:16;97698.28;;;33.23;39.61
27712;BME280;2377;51.734;8.950;2022-08-04T09:35:02;97693.47;;;33.36;39.50
27712;BME280;2377;51.734;8.950;2022-08-04T09:37:40;97699.38;;;33.59;39.27
27712;BME280;2377;51.734;8.950;2022-08-04T09:40:19;97694.56;;;33.76;39.76
27712;BME280;2377;51.734;8.950;2022-08-04T09:43:00;97696.56;;;33.93;39.45
27712;BME280;2377;51.734;8.950;2022-08-04T09:45:41;97688.34;;;34.09;38.09
27712;BME280;2377;51.734;8.950;2022-08-04T09:48:16;97687.22;;;34.14;37.86
27712;BME280;2377;51.734;8.950;2022-08-04T09:50:57;97686.06;;;34.11;37.55
27712;BME280;2377;51.734;8.950;2022-08-04T09:53:47;97687.66;;;34.23;38.96
27712;BME280;2377;51.734;8.950;2022-08-04T09:56:25;97684.66;;;34.31;36.99
27712;BME280;2377;51.734;8.950;2022-08-04T09:59:03;97685.03;;;34.34;37.27
27712;BME280;2377;51.734;8.950;2022-08-04T10:01:35;97690.31;;;34.23;36.97
27712;BME280;2377;51.734;8.950;2022-08-04T10:04:11;97683.47;;;34.22;37.18
27712;BME280;2377;51.734;8.950;2022-08-04T10:07:03;97682.00;;;34.31;37.76
27712;BME280;2377;51.734;8.950;2022-08-04T10:09:55;97680.16;;;34.50;37.42
27712;BME280;2377;51.734;8.950;2022-08-04T10:12:37;97677.59;;;34.68;38.59
27712;BME280;2377;51.734;8.950;2022-08-04T10:15:17;97675.38;;;34.88;36.86
27712;BME280;2377;51.734;8.950;2022-08-04T10:18:10;97682.22;;;34.96;36.63
27712;BME280;2377;51.734;8.950;2022-08-04T10:21:05;97679.16;;;34.94;36.06
27712;BME280;2377;51.734;8.950;2022-08-04T10:23:58;97667.41;;;34.99;36.37
27712;BME280;2377;51.734;8.950;2022-08-04T10:26:35;97665.13;;;35.08;35.96
27712;BME280;2377;51.734;8.950;2022-08-04T10:29:13;97668.56;;;35.23;36.28
27712;BME280;2377;51.734;8.950;2022-08-04T10:31:47;97660.97;;;35.39;36.50
27712;BME280;2377;51.734;8.950;2022-08-04T10:34:21;97665.16;;;35.51;35.14
27712;BME280;2377;51.734;8.950;2022-08-04T10:36:59;97659.09;;;35.61;35.49
27712;BME280;2377;51.734;8.950;2022-08-04T10:39:41;97666.31;;;35.61;35.13
27712;BME280;2377;51.734;8.950;2022-08-04T10:42:37;97673.16;;;35.33;34.45
27712;BME280;2377;51.734;8.950;2022-08-04T10:45:16;97667.00;;;34.97;34.26
27712;BME280;2377;51.734;8.950;2022-08-04T10:47:55;97659.31;;;34.59;33.95
27712;BME280;2377;51.734;8.950;2022-08-04T10:50:26;97666.09;;;34.31;34.05
27712;BME280;2377;51.734;8.950;2022-08-04T10:53:02;97665.25;;;34.17;35.15
27712;BME280;2377;51.734;8.950;2022-08-04T10:55:37;97664.03;;;34.07;35.79
27712;BME280;2377;51.734;8.950;2022-08-04T10:58:13;97665.88;;;33.96;35.99
27712;BME280;2377;51.734;8.950;2022-08-04T11:00:45;97662.03;;;33.86;35.04
27712;BME280;2377;51.734;8.950;2022-08-04T11:03:19;97649.47;;;33.79;34.79
27712;BME280;2377;51.734;8.950;2022-08-04T11:05:52;97655.22;;;33.88;34.16
27712;BME280;2377;51.734;8.950;2022-08-04T11:08:26;97652.28;;;34.04;35.36
27712;BME280;2377;51.734;8.950;2022-08-04T11:11:02;97654.69;;;34.27;34.98
27712;BME280;2377;51.734;8.950;2022-08-04T11:13:39;97656.59;;;34.38;34.41
27712;BME280;2377;51.734;8.950;2022-08-04T11:16:13;97654.69;;;34.27;33.43
27712;BME280;2377;51.734;8.950;2022-08-04T11:18:51;97652.69;;;34.10;34.18
27712;BME280;2377;51.734;8.950;2022-08-04T11:21:33;97652.28;;;34.04;34.29
27712;BME280;2377;51.734;8.950;2022-08-04T11:24:15;97655.25;;;33.96;33.24
27712;BME280;2377;51.734;8.950;2022-08-04T11:26:50;97649.19;;;33.92;33.40
27712;BME280;2377;51.734;8.950;2022-08-04T11:29:30;97656.75;;;33.93;33.89
27712;BME280;2377;51.734;8.950;2022-08-04T11:32:02;97649.63;;;34.01;34.27
27712;BME280;2377;51.734;8.950;2022-08-04T11:34:33;97654.16;;;34.04;33.84
27712;BME280;2377;51.734;8.950;2022-08-04T11:37:10;97645.03;;;33.98;33.20
27712;BME280;2377;51.734;8.950;2022-08-04T11:39:47;97643.53;;;33.97;33.20
27712;BME280;2377;51.734;8.950;2022-08-04T11:42:22;97651.88;;;33.99;33.56
27712;BME280;2377;51.734;8.950;2022-08-04T11:44:54;97644.69;;;34.06;32.67
27712;BME280;2377;51.734;8.950;2022-08-04T11:47:33;97650.47;;;34.16;32.76
27712;BME280;2377;51.734;8.950;2022-08-04T11:50:09;97647.13;;;34.37;33.69
27712;BME280;2377;51.734;8.950;2022-08-04T11:52:43;97648.38;;;34.61;33.17
27712;BME280;2377;51.734;8.950;2022-08-04T11:55:16;97647.63;;;34.75;33.45
27712;BME280;2377;51.734;8.950;2022-08-04T11:57:44;97649.16;;;34.83;32.82
27712;BME280;2377;51.734;8.950;2022-08-04T12:00:14;97657.50;;;34.85;31.93
27712;BME280;2377;51.734;8.950;2022-08-04T12:03:18;97661.69;;;34.97;31.02
27712;BME280;2377;51.734;8.950;2022-08-04T12:06:08;97656.41;;;34.93;31.16
27712;BME280;2377;51.734;8.950;2022-08-04T12:08:54;97659.03;;;34.71;30.73
27712;BME280;2377;51.734;8.950;2022-08-04T12:11:36;97660.16;;;34.85;31.09
27712;BME280;2377;51.734;8.950;2022-08-04T12:14:21;97664.75;;;34.95;30.08
27712;BME280;2377;51.734;8.950;2022-08-04T12:16:58;97664.38;;;35.07;31.74
27712;BME280;2377;51.734;8.950;2022-08-04T12:19:35;97670.50;;;35.19;29.36
27712;BME280;2377;51.734;8.950;2022-08-04T12:22:10;97661.75;;;35.29;30.24
27712;BME280;2377;51.734;8.950;2022-08-04T12:24:44;97659.09;;;35.43;30.28
27712;BME280;2377;51.734;8.950;2022-08-04T12:27:19;97653.75;;;35.50;29.95
27712;BME280;2377;51.734;8.950;2022-08-04T12:29:48;97657.19;;;35.40;29.96
27712;BME280;2377;51.734;8.950;2022-08-04T12:32:23;97657.22;;;35.19;30.17
27712;BME280;2377;51.734;8.950;2022-08-04T12:35:08;97657.91;;;34.98;30.33
27712;BME280;2377;51.734;8.950;2022-08-04T12:37:49;97645.00;;;35.03;30.59
27712;BME280;2377;51.734;8.950;2022-08-04T12:40:24;97654.13;;;35.09;30.12
27712;BME280;2377;51.734;8.950;2022-08-04T12:43:02;97652.25;;;35.24;30.80
27712;BME280;2377;51.734;8.950;2022-08-04T12:45:33;97649.22;;;35.40;30.15
27712;BME280;2377;51.734;8.950;2022-08-04T12:48:05;97640.13;;;35.30;29.84
27712;BME280;2377;51.734;8.950;2022-08-04T12:50:34;97641.25;;;35.11;30.59
27712;BME280;2377;51.734;8.950;2022-08-04T12:53:11;97642.38;;;35.00;30.41
27712;BME280;2377;51.734;8.950;2022-08-04T12:55:47;97653.34;;;34.91;29.95
27712;BME280;2377;51.734;8.950;2022-08-04T12:58:23;97638.94;;;34.88;30.74
27712;BME280;2377;51.734;8.950;2022-08-04T13:00:55;97645.03;;;35.00;29.10
27712;BME280;2377;51.734;8.950;2022-08-04T13:03:35;97639.72;;;35.10;29.50
27712;BME280;2377;51.734;8.950;2022-08-04T13:06:05;97645.81;;;35.22;29.92
27712;BME280;2377;51.734;8.950;2022-08-04T13:08:37;97638.59;;;35.33;30.69
27712;BME280;2377;51.734;8.950;2022-08-04T13:11:08;97635.16;;;35.36;29.55
27712;BME280;2377;51.734;8.950;2022-08-04T13:13:38;97625.28;;;35.47;29.63
27712;BME280;2377;51.734;8.950;2022-08-04T13:16:08;97629.84;;;35.61;30.20
27712;BME280;2377;51.734;8.950;2022-08-04T13:18:38;97633.63;;;35.64;29.75
27712;BME280;2377;51.734;8.950;2022-08-04T13:21:12;97633.66;;;35.42;28.89
27712;BME280;2377;51.734;8.950;2022-08-04T13:23:41;97636.69;;;35.30;28.87
27712;BME280;2377;51.734;8.950;2022-08-04T13:26:12;97642.75;;;35.20;30.22
27712;BME280;2377;51.734;8.950;2022-08-04T13:28:44;97638.56;;;35.08;29.74
27712;BME280;2377;51.734;8.950;2022-08-04T13:31:15;97636.66;;;35.08;28.58
27712;BME280;2377;51.734;8.950;2022-08-04T13:33:46;97637.06;;;35.25;29.67
27712;BME280;2377;51.734;8.950;2022-08-04T13:36:16;97631.75;;;35.43;30.13
27712;BME280;2377;51.734;8.950;2022-08-04T13:38:50;97627.53;;;35.42;29.03
27712;BME280;2377;51.734;8.950;2022-08-04T13:41:20;97632.88;;;35.45;29.22
27712;BME280;2377;51.734;8.950;2022-08-04T13:43:55;97632.09;;;35.41;28.08
27712;BME280;2377;51.734;8.950;2022-08-04T13:46:28;97632.88;;;35.34;29.11
27712;BME280;2377;51.734;8.950;2022-08-04T13:49:00;97627.56;;;35.38;29.97
27712;BME280;2377;51.734;8.950;2022-08-04T13:51:31;97628.69;;;35.48;28.95
27712;BME280;2377;51.734;8.950;2022-08-04T13:54:00;97621.44;;;35.59;27.66
27712;BME280;2377;51.734;8.950;2022-08-04T13:56:33;97625.66;;;35.64;28.62
27712;BME280;2377;51.734;8.950;2022-08-04T13:59:09;97629.06;;;35.61;28.45
27712;BME280;2377;51.734;8.950;2022-08-04T14:01:42;97624.13;;;35.41;28.07
27712;BME280;2377;51.734;8.950;2022-08-04T14:04:16;97623.03;;;35.28;27.45
27712;BME280;2377;51.734;8.950;2022-08-04T14:06:49;97633.66;;;35.24;28.33
27712;BME280;2377;51.734;8.950;2022-08-04T14:09:20;97627.56;;;35.24;27.81
27712;BME280;2377;51.734;8.950;2022-08-04T14:11:50;97621.88;;;35.29;27.21
27712;BME280;2377;51.734;8.950;2022-08-04T14:14:22;97621.13;;;35.21;26.89
27712;BME280;2377;51.734;8.950;2022-08-04T14:17:12;97621.47;;;35.05;25.70
27712;BME280;2377;51.734;8.950;2022-08-04T14:19:52;97619.19;;;35.00;26.80
27712;BME280;2377;51.734;8.950;2022-08-04T14:22:35;97626.78;;;34.94;25.93
27712;BME280;2377;51.734;8.950;2022-08-04T14:25:07;97612.34;;;34.88;27.04
27712;BME280;2377;51.734;8.950;2022-08-04T14:27:45;97616.53;;;34.86;27.44
27712;BME280;2377;51.734;8.950;2022-08-04T14:30:26;97618.03;;;34.80;27.55
27712;BME280;2377;51.734;8.950;2022-08-04T14:32:57;97623.72;;;34.78;28.13
27712;BME280;2377;51.734;8.950;2022-08-04T14:35:25;97616.16;;;34.77;28.13
27712;BME280;2377;51.734;8.950;2022-08-04T14:37:55;97613.47;;;34.69;28.55
27712;BME280;2377;51.734;8.950;2022-08-04T14:40:25;97605.50;;;34.62;28.34
27712;BME280;2377;51.734;8.950;2022-08-04T14:42:53;97608.16;;;34.62;28.58
27712;BME280;2377;51.734;8.950;2022-08-04T14:45:30;97606.22;;;34.59;29.11
27712;BME280;2377;51.734;8.950;2022-08-04T14:47:58;97613.44;;;34.55;29.37
27712;BME280;2377;51.734;8.950;2022-08-04T14:50:38;97610.75;;;34.51;29.84